Time;durP1;ratioP1;P1;durP2;ratioP2;P2;SDS_P1;SDS_P2;PMS_P1;PMS_P2;Temp;Humidity;BMP_temperature;BMP_pressure;BME280_temperature;BME280_humidity;BME280_pressure;Samples;Min_cycle;Max_cycle;Signal;HPM_P1;HPM_P2
2022/05/15 00:00:41;;;;;;;9.98;8.98;;;;;;;15.95;89.85;99582.22;5073371;28;20292;-83
2022/05/15 00:03:12;;;;;;;8.55;7.15;;;;;;;15.94;89.50;99583.19;5073264;28;20181;-81
2022/05/15 00:05:39;;;;;;;9.65;8.70;;;;;;;15.96;88.73;99576.66;5072609;28;20181;-81
2022/05/15 00:08:06;;;;;;;8.55;7.40;;;;;;;15.88;89.85;99572.84;5073245;28;20644;-81
2022/05/15 00:10:33;;;;;;;9.88;8.13;;;;;;;15.60;91.99;99569.59;5072747;28;20200;-81
2022/05/15 00:12:59;;;;;;;11.43;8.55;;;;;;;15.38;94.16;99567.72;5072779;28;20195;-82
2022/05/15 00:15:29;;;;;;;12.63;7.63;;;;;;;15.18;96.50;99570.13;5072485;28;20185;-81
2022/05/15 00:17:56;;;;;;;9.07;8.18;;;;;;;15.32;95.68;99566.34;5072599;28;20224;-82
2022/05/15 00:20:22;;;;;;;10.35;8.15;;;;;;;15.30;95.62;99568.31;5072589;28;20197;-82
2022/05/15 00:22:49;;;;;;;11.45;8.48;;;;;;;15.20;96.50;99559.19;5072474;28;20201;-81
2022/05/15 00:25:16;;;;;;;10.55;7.70;;;;;;;15.25;96.24;99556.09;5072765;28;20276;-82
2022/05/15 00:27:42;;;;;;;10.70;9.30;;;;;;;15.27;96.07;99560.41;5072310;28;20280;-81
2022/05/15 00:30:13;;;;;;;9.15;7.63;;;;;;;15.35;95.17;99552.56;5072713;28;20590;-81
2022/05/15 00:32:41;;;;;;;9.13;8.10;;;;;;;15.22;95.71;99551.78;5072550;28;20180;-81
2022/05/15 00:35:08;;;;;;;8.48;7.65;;;;;;;15.11;97.29;99547.19;5072707;28;20552;-81
2022/05/15 00:37:35;;;;;;;9.95;8.65;;;;;;;15.00;98.11;99549.88;5071960;28;20214;-82
2022/05/15 00:40:02;;;;;;;12.27;7.85;;;;;;;15.11;97.49;99549.91;5072111;28;20211;-82
2022/05/15 00:42:28;;;;;;;10.02;8.15;;;;;;;15.08;97.14;99549.25;5072376;28;20619;-82
2022/05/15 00:44:55;;;;;;;8.32;7.35;;;;;;;15.11;96.97;99546.34;5072216;28;20196;-81
2022/05/15 00:47:21;;;;;;;8.77;7.38;;;;;;;15.07;97.06;99543.00;5072424;28;20189;-81
2022/05/15 00:49:50;;;;;;;8.90;7.30;;;;;;;15.01;97.69;99547.06;5072198;28;20191;-82
2022/05/15 00:52:22;;;;;;;8.82;7.63;;;;;;;15.09;96.86;99548.31;5071733;28;20228;-82
2022/05/15 00:54:52;;;;;;;9.48;7.63;;;;;;;15.19;95.94;99552.88;5052599;28;20186;-81
2022/05/15 00:57:24;;;;;;;9.07;7.63;;;;;;;15.18;95.93;99551.16;5052632;28;20211;-81
2022/05/15 00:59:56;;;;;;;8.52;7.30;;;;;;;15.18;95.57;99553.88;5052451;28;20677;-82
2022/05/15 01:02:23;;;;;;;10.10;7.45;;;;;;;15.08;96.67;99547.44;5052718;28;20190;-81
2022/05/15 01:04:53;;;;;;;10.82;7.30;;;;;;;15.20;96.92;99546.47;5071825;28;20192;-82
2022/05/15 01:07:20;;;;;;;13.68;8.90;;;;;;;15.51;94.01;99548.59;5071767;28;20185;-82
2022/05/15 01:09:48;;;;;;;8.75;7.75;;;;;;;15.49;93.64;99548.75;5072133;28;20528;-82
2022/05/15 01:12:15;;;;;;;7.55;6.82;;;;;;;15.73;90.94;99553.22;5072257;28;20196;-83
2022/05/15 01:14:45;;;;;;;9.60;6.97;;;;;;;15.49;92.48;99545.16;5073077;28;20181;-82
2022/05/15 01:17:12;;;;;;;8.45;6.55;;;;;;;15.74;90.43;99550.41;5072698;28;20185;-82
2022/05/15 01:19:41;;;;;;;7.82;6.85;;;;;;;15.70;90.09;99548.03;5072035;28;20294;-82
2022/05/15 01:22:15;;;;;;;8.32;6.38;;;;;;;15.43;91.61;99541.09;5071895;28;20196;-83
2022/05/15 01:24:42;;;;;;;8.30;7.50;;;;;;;15.40;91.95;99538.63;5071857;28;20220;-82
2022/05/15 01:27:12;;;;;;;8.38;7.13;;;;;;;15.09;94.37;99540.16;5071910;28;20581;-83
2022/05/15 01:29:42;;;;;;;7.70;6.85;;;;;;;15.11;94.53;99547.19;5072007;28;20191;-83
2022/05/15 01:32:09;;;;;;;8.02;6.55;;;;;;;14.97;95.75;99536.56;5071502;28;20188;-83
2022/05/15 01:34:36;;;;;;;9.75;7.28;;;;;;;15.02;95.61;99543.34;5071525;28;20185;-82
2022/05/15 01:37:03;;;;;;;10.45;7.10;;;;;;;14.97;96.61;99544.69;5071762;28;20196;-83
2022/05/15 01:39:31;;;;;;;7.60;6.80;;;;;;;14.91;96.62;99537.03;5071408;28;20220;-83
2022/05/15 01:41:58;;;;;;;10.18;7.50;;;;;;;14.78;97.73;99553.34;5071347;28;20192;-82
2022/05/15 01:44:25;;;;;;;8.35;7.20;;;;;;;14.90;96.50;99554.25;5071749;28;20181;-82
2022/05/15 01:46:52;;;;;;;8.60;7.38;;;;;;;14.90;96.01;99548.84;5071723;28;20643;-82
2022/05/15 01:49:19;;;;;;;8.30;6.25;;;;;;;14.92;95.63;99541.47;5071447;28;20185;-81
2022/05/15 01:51:46;;;;;;;10.10;7.15;;;;;;;14.93;94.41;99535.94;5071022;28;20586;-82
2022/05/15 01:54:14;;;;;;;8.60;7.32;;;;;;;14.95;94.51;99546.66;5074174;28;20538;-81
2022/05/15 01:56:42;;;;;;;8.15;6.15;;;;;;;14.93;94.38;99540.50;5075886;28;20543;-81
2022/05/15 01:59:10;;;;;;;8.60;6.03;;;;;;;14.91;93.98;99543.31;5075598;28;20246;-80
2022/05/15 02:01:37;;;;;;;7.38;6.50;;;;;;;15.07;91.92;99542.13;5075693;28;20184;-82
2022/05/15 02:04:04;;;;;;;8.68;7.00;;;;;;;15.16;92.12;99536.84;5075635;28;20192;-82
2022/05/15 02:06:31;;;;;;;10.68;7.45;;;;;;;15.14;92.60;99535.25;5075596;28;20189;-83
2022/05/15 02:08:57;;;;;;;8.57;6.82;;;;;;;14.91;93.61;99539.75;5075709;28;20196;-83
2022/05/15 02:11:24;;;;;;;8.82;7.32;;;;;;;14.73;95.03;99537.44;5075453;28;20196;-82
2022/05/15 02:13:52;;;;;;;8.50;6.18;;;;;;;14.55;96.44;99536.16;5075112;28;20204;-81
2022/05/15 02:16:19;;;;;;;9.75;6.65;;;;;;;14.47;97.04;99534.00;5075225;28;20199;-83
2022/05/15 02:18:45;;;;;;;7.18;6.22;;;;;;;14.34;99.22;99525.06;5075282;28;20224;-82
2022/05/15 02:21:12;;;;;;;9.10;6.32;;;;;;;14.41;98.79;99529.03;5075146;28;20227;-82
2022/05/15 02:23:39;;;;;;;10.93;6.95;;;;;;;14.26;100.00;99524.75;5075220;28;20180;-82
2022/05/15 02:26:05;;;;;;;9.05;6.20;;;;;;;13.91;100.00;99522.81;5075349;28;20210;-82
2022/05/15 02:28:32;;;;;;;9.20;6.07;;;;;;;13.97;100.00;99520.53;5075445;28;20286;-82
2022/05/15 02:31:00;;;;;;;7.95;7.15;;;;;;;14.08;100.00;99524.28;5075110;28;20525;-81
2022/05/15 02:33:27;;;;;;;7.38;6.57;;;;;;;14.09;100.00;99523.31;5075096;28;20706;-81
2022/05/15 02:35:54;;;;;;;6.97;6.38;;;;;;;14.15;100.00;99520.97;5074753;28;20207;-82
2022/05/15 02:38:20;;;;;;;7.53;6.03;;;;;;;14.23;100.00;99522.28;5074926;28;20208;-81
2022/05/15 02:40:48;;;;;;;7.35;6.13;;;;;;;14.34;99.27;99525.91;5074944;28;20519;-82
2022/05/15 02:43:15;;;;;;;9.05;7.03;;;;;;;14.30;98.26;99523.56;5074724;28;20196;-82
2022/05/15 02:45:42;;;;;;;9.45;6.35;;;;;;;14.39;97.56;99518.28;5075205;28;20228;-82
2022/05/15 02:51:03;;;;;;;10.07;7.00;;;;;;;14.51;97.06;99524.63;5075355;28;20199;-82
2022/05/15 02:51:05;;;;;;;8.52;6.85;;;;;;;14.82;95.09;99518.75;5073977;28;20227;-83
2022/05/15 02:53:32;;;;;;;9.15;7.68;;;;;;;14.79;94.75;99518.00;5075219;28;20213;-83
2022/05/15 02:55:59;;;;;;;7.65;6.68;;;;;;;14.67;94.85;99520.78;5075221;28;20912;-82
2022/05/15 02:58:26;;;;;;;10.75;6.22;;;;;;;14.70;94.02;99510.59;5074334;28;20177;-82
2022/05/15 03:00:53;;;;;;;12.52;6.35;;;;;;;14.79;93.80;99515.31;5074235;28;20200;-82
2022/05/15 03:03:21;;;;;;;7.03;5.78;;;;;;;14.92;91.85;99515.19;5074221;28;20226;-82
2022/05/15 03:05:47;;;;;;;6.63;5.43;;;;;;;14.80;90.31;99514.31;5073033;28;20199;-82
2022/05/15 03:08:14;;;;;;;7.25;5.63;;;;;;;14.49;92.14;99523.03;5074153;28;20370;-83
2022/05/15 03:10:40;;;;;;;6.15;5.55;;;;;;;14.28;93.03;99523.66;5073728;28;20207;-81
2022/05/15 03:13:07;;;;;;;9.45;6.20;;;;;;;14.14;94.02;99516.56;5074294;28;20189;-82
2022/05/15 03:15:33;;;;;;;6.90;5.63;;;;;;;14.15;93.03;99517.41;5074568;28;20209;-81
2022/05/15 03:18:00;;;;;;;8.40;5.45;;;;;;;14.17;92.29;99512.75;5074652;28;20190;-83
2022/05/15 03:20:28;;;;;;;6.53;4.88;;;;;;;14.13;93.40;99522.97;5073982;28;20219;-82
2022/05/15 03:22:55;;;;;;;9.07;5.07;;;;;;;14.12;92.76;99510.41;5074324;28;20204;-82
2022/05/15 03:25:22;;;;;;;6.70;5.25;;;;;;;14.25;92.20;99504.09;5073828;28;20210;-82
2022/05/15 03:27:48;;;;;;;6.78;5.53;;;;;;;14.26;91.76;99498.53;5073877;28;20195;-83
2022/05/15 03:30:15;;;;;;;6.78;5.32;;;;;;;14.18;91.70;99506.38;5074042;28;20988;-82
2022/05/15 03:32:42;;;;;;;5.68;4.95;;;;;;;14.00;91.19;99505.91;5074232;28;20733;-82
2022/05/15 03:35:11;;;;;;;6.00;5.10;;;;;;;13.91;90.88;99499.31;5074258;28;20255;-82
2022/05/15 03:37:40;;;;;;;6.65;5.10;;;;;;;13.86;89.37;99498.81;5073782;28;20583;-81
2022/05/15 03:40:08;;;;;;;6.63;4.30;;;;;;;14.08;86.38;99492.63;5073706;28;20622;-82
2022/05/15 03:42:35;;;;;;;6.13;4.70;;;;;;;13.97;86.98;99500.69;5073885;28;20270;-83
2022/05/15 03:45:02;;;;;;;7.10;4.72;;;;;;;13.95;87.83;99498.13;5073747;28;20235;-80
2022/05/15 03:47:28;;;;;;;5.97;4.80;;;;;;;13.96;86.28;99505.25;5073742;28;20211;-82
2022/05/15 03:49:55;;;;;;;5.43;4.82;;;;;;;14.01;85.80;99509.47;5073410;28;20187;-82
2022/05/15 03:52:21;;;;;;;5.35;4.63;;;;;;;13.89;85.42;99498.56;5073390;28;20589;-83
2022/05/15 03:54:49;;;;;;;5.80;4.50;;;;;;;13.86;85.06;99498.81;5073934;28;20211;-82
2022/05/15 03:57:16;;;;;;;6.38;4.35;;;;;;;13.83;84.79;99499.00;5073755;28;20537;-82
2022/05/15 03:59:43;;;;;;;5.32;4.50;;;;;;;13.82;84.27;99497.28;5072952;28;20585;-83
2022/05/15 04:02:11;;;;;;;6.68;4.72;;;;;;;13.84;84.35;99495.34;5073453;28;20652;-82
2022/05/15 04:04:38;;;;;;;7.13;4.60;;;;;;;13.85;83.84;99505.16;5073210;28;20186;-81
2022/05/15 04:07:05;;;;;;;5.90;4.40;;;;;;;13.90;83.47;99500.28;5072921;28;20203;-82
2022/05/15 04:09:33;;;;;;;4.35;3.95;;;;;;;13.91;82.98;99502.03;5073439;28;20183;-82
2022/05/15 04:12:01;;;;;;;6.90;4.40;;;;;;;13.92;82.36;99495.63;5072707;28;20317;-82
2022/05/15 04:14:27;;;;;;;4.53;3.90;;;;;;;13.89;82.38;99482.31;5073303;28;20203;-81
2022/05/15 04:16:54;;;;;;;4.38;3.97;;;;;;;13.88;82.02;99496.81;5072993;28;20192;-81
2022/05/15 04:19:21;;;;;;;8.50;4.45;;;;;;;14.00;81.40;99503.19;5072683;28;20208;-82
2022/05/15 04:21:47;;;;;;;5.50;4.60;;;;;;;14.03;80.74;99504.81;5072530;28;20196;-81
2022/05/15 04:24:16;;;;;;;4.90;4.25;;;;;;;14.01;80.68;99502.19;5073125;28;20188;-82
2022/05/15 04:26:44;;;;;;;8.43;3.88;;;;;;;14.19;79.61;99505.38;5073239;28;20533;-81
2022/05/15 04:29:12;;;;;;;6.25;4.20;;;;;;;14.23;79.37;99498.78;5072595;28;20203;-83
2022/05/15 04:31:39;;;;;;;4.18;3.72;;;;;;;14.27;79.33;99508.41;5072429;28;20188;-81
2022/05/15 04:34:06;;;;;;;4.53;4.05;;;;;;;14.17;79.85;99505.50;5072837;28;20196;-83
2022/05/15 04:36:33;;;;;;;5.80;4.15;;;;;;;14.24;79.96;99500.47;5074359;28;20188;-82
2022/05/15 04:39:01;;;;;;;6.05;4.38;;;;;;;14.26;79.51;99512.06;5072722;28;20181;-81
2022/05/15 04:41:28;;;;;;;5.35;4.30;;;;;;;14.34;79.22;99508.81;5072344;28;20203;-81
2022/05/15 04:43:55;;;;;;;4.25;3.85;;;;;;;14.34;79.34;99509.66;5072296;28;20202;-82
2022/05/15 04:46:25;;;;;;;8.13;4.72;;;;;;;14.32;79.26;99506.19;5072652;28;20188;-82
2022/05/15 04:48:52;;;;;;;5.80;4.82;;;;;;;14.28;79.58;99503.84;5072659;28;20618;-82
2022/05/15 04:51:19;;;;;;;5.25;3.65;;;;;;;14.33;79.58;99507.06;5071933;28;20654;-81
2022/05/15 04:53:46;;;;;;;7.10;4.05;;;;;;;14.37;79.37;99509.41;5072344;28;20194;-82
2022/05/15 04:56:13;;;;;;;5.13;4.47;;;;;;;14.37;79.10;99508.56;5072439;28;20242;-82
2022/05/15 04:58:40;;;;;;;5.22;4.72;;;;;;;14.45;78.73;99510.69;5072159;28;20198;-82
2022/05/15 05:01:07;;;;;;;5.07;4.55;;;;;;;14.42;79.17;99510.94;5071779;28;20217;-81
2022/05/15 05:03:35;;;;;;;5.00;4.10;;;;;;;14.46;78.80;99505.16;5072350;28;20202;-82
2022/05/15 05:06:01;;;;;;;7.88;4.50;;;;;;;14.42;79.06;99509.06;5072488;28;20179;-80
2022/05/15 05:08:28;;;;;;;5.22;4.47;;;;;;;14.53;78.63;99509.13;5072512;28;20655;-82
2022/05/15 05:10:55;;;;;;;5.57;3.97;;;;;;;14.58;78.19;99506.97;5072058;28;20191;-82
2022/05/15 05:13:21;;;;;;;5.60;3.97;;;;;;;14.69;77.77;99506.13;5072401;28;20203;-82
2022/05/15 05:15:48;;;;;;;7.05;5.32;;;;;;;14.76;77.15;99509.25;5071913;28;20189;-82
2022/05/15 05:18:15;;;;;;;8.15;4.50;;;;;;;14.85;76.50;99503.13;5072223;28;20193;-81
2022/05/15 05:20:43;;;;;;;4.88;4.00;;;;;;;14.89;76.08;99510.03;5072397;28;20587;-82
2022/05/15 05:23:09;;;;;;;5.32;4.47;;;;;;;14.92;75.98;99506.22;5072026;28;20187;-81
2022/05/15 05:25:36;;;;;;;5.18;4.47;;;;;;;15.00;75.63;99506.50;5072528;28;20540;-81
2022/05/15 05:28:04;;;;;;;8.30;4.70;;;;;;;15.09;74.65;99500.34;5070612;28;20223;-82
2022/05/15 05:30:32;;;;;;;4.90;4.50;;;;;;;15.18;74.20;99502.34;5058278;28;20196;-83
2022/05/15 05:32:58;;;;;;;4.90;4.40;;;;;;;15.32;73.32;99508.53;5051096;28;20189;-82
2022/05/15 05:35:27;;;;;;;16.45;4.90;;;;;;;15.31;72.92;99506.78;5056326;28;20705;-80
2022/05/15 05:37:55;;;;;;;5.28;4.15;;;;;;;15.35;72.44;99516.41;5071844;28;20186;-81
2022/05/15 05:40:23;;;;;;;6.45;4.50;;;;;;;15.43;72.04;99513.97;5071459;28;20227;-82
2022/05/15 05:42:50;;;;;;;9.38;4.75;;;;;;;15.44;71.80;99512.97;5071717;28;20206;-82
2022/05/15 05:45:18;;;;;;;6.57;4.60;;;;;;;15.50;71.77;99514.34;5071689;28;20192;-83
2022/05/15 05:47:46;;;;;;;6.10;4.65;;;;;;;15.57;71.70;99511.00;5071119;28;20196;-83
2022/05/15 05:50:14;;;;;;;5.00;4.28;;;;;;;15.73;70.79;99515.22;5071327;28;20642;-82
2022/05/15 05:52:42;;;;;;;7.82;4.38;;;;;;;15.74;70.79;99516.97;5071526;28;20188;-81
2022/05/15 05:55:12;;;;;;;13.50;4.82;;;;;;;15.70;70.97;99508.16;5071024;28;20201;-81
2022/05/15 05:57:39;;;;;;;4.65;3.90;;;;;;;15.81;70.73;99508.19;5071014;28;20184;-82
2022/05/15 06:00:08;;;;;;;4.18;3.88;;;;;;;15.88;70.72;99513.13;5071010;28;20222;-81
2022/05/15 06:02:34;;;;;;;14.43;4.90;;;;;;;15.96;70.14;99514.19;5071097;28;20203;-83
2022/05/15 06:05:00;;;;;;;9.07;5.00;;;;;;;16.36;68.31;99519.06;5071303;28;20624;-82
2022/05/15 06:07:28;;;;;;;7.70;4.03;;;;;;;16.40;67.87;99514.25;5070986;28;20203;-81
2022/05/15 06:09:55;;;;;;;7.00;4.60;;;;;;;16.50;67.72;99519.75;5071404;28;20184;-81
2022/05/15 06:12:26;;;;;;;7.32;4.90;;;;;;;16.45;67.97;99517.44;5070796;28;20196;-80
2022/05/15 06:14:53;;;;;;;5.55;4.40;;;;;;;16.45;68.11;99514.72;5070370;28;20185;-83
2022/05/15 06:17:21;;;;;;;6.32;4.72;;;;;;;16.53;68.20;99514.06;5070995;28;20193;-84
2022/05/15 06:19:48;;;;;;;7.88;4.82;;;;;;;16.53;68.42;99514.94;5070983;28;20220;-83
2022/05/15 06:22:14;;;;;;;6.63;4.95;;;;;;;16.67;67.64;99511.06;5070808;28;20188;-82
2022/05/15 06:24:41;;;;;;;6.45;4.40;;;;;;;16.93;66.58;99506.13;5071322;28;20191;-80
2022/05/15 06:27:08;;;;;;;5.57;4.00;;;;;;;17.04;66.20;99510.66;5070535;28;20200;-82
2022/05/15 06:29:37;;;;;;;5.80;5.18;;;;;;;16.99;66.36;99508.31;5067397;28;20197;-83
2022/05/15 06:32:05;;;;;;;7.20;4.40;;;;;;;17.26;65.10;99512.38;5069922;28;20194;-82
2022/05/15 06:34:31;;;;;;;7.10;4.60;;;;;;;17.59;63.58;99511.28;5071012;28;20205;-82
2022/05/15 06:36:58;;;;;;;6.55;4.40;;;;;;;17.67;63.09;99510.56;5070865;28;20193;-83
2022/05/15 06:39:25;;;;;;;5.45;4.53;;;;;;;17.38;64.37;99514.00;5071365;28;20658;-82
2022/05/15 06:41:56;;;;;;;5.35;4.00;;;;;;;17.70;63.21;99508.47;5074260;28;20223;-82
2022/05/15 06:44:22;;;;;;;4.70;4.00;;;;;;;17.63;63.34;99515.41;5073961;28;20191;-82
2022/05/15 06:46:50;;;;;;;7.85;4.28;;;;;;;17.97;62.00;99512.44;5074329;28;20204;-80
2022/05/15 06:49:17;;;;;;;6.22;4.57;;;;;;;18.01;61.80;99516.59;5074167;28;20239;-82
2022/05/15 06:51:44;;;;;;;4.25;3.85;;;;;;;18.29;60.82;99517.69;5073935;28;20241;-82
2022/05/15 06:54:10;;;;;;;5.38;4.90;;;;;;;18.44;59.60;99520.84;5074030;28;20615;-81
2022/05/15 06:59:21;;;;;;;4.75;4.22;;;;;;;18.39;59.88;99514.13;5073686;28;20283;-81
2022/05/15 07:01:48;;;;;;;6.35;4.15;;;;;;;18.76;58.58;99517.84;5074106;28;20685;-81
2022/05/15 07:04:16;;;;;;;6.60;4.47;;;;;;;18.72;58.95;99521.91;5074021;28;20191;-81
2022/05/15 07:06:42;;;;;;;7.60;5.20;;;;;;;18.93;58.35;99524.50;5073440;28;20197;-81
2022/05/15 07:09:09;;;;;;;5.78;3.95;;;;;;;18.96;58.06;99521.47;5073748;28;20645;-82
2022/05/15 07:11:35;;;;;;;7.70;4.30;;;;;;;19.29;56.97;99522.03;5073903;28;20184;-82
2022/05/15 07:14:03;;;;;;;4.30;3.70;;;;;;;19.19;57.26;99521.16;5073915;28;20198;-84
2022/05/15 07:16:29;;;;;;;4.60;3.67;;;;;;;18.82;58.73;99521.06;5073280;28;20258;-81
2022/05/15 07:18:56;;;;;;;5.85;4.13;;;;;;;18.79;59.39;99519.50;5073327;28;20196;-81
2022/05/15 07:21:24;;;;;;;6.28;4.63;;;;;;;19.14;58.54;99518.88;5073108;28;20220;-84
2022/05/15 07:23:50;;;;;;;4.60;4.00;;;;;;;19.39;56.79;99513.81;5073808;28;20195;-83
2022/05/15 07:26:17;;;;;;;5.50;4.07;;;;;;;19.32;57.15;99509.94;5073393;28;20542;-81
2022/05/15 07:28:50;;;;;;;7.35;4.47;;;;;;;19.67;56.54;99514.72;5073311;28;20192;-81
2022/05/15 07:31:18;;;;;;;4.47;3.80;;;;;;;19.97;55.13;99526.44;5055492;28;20200;-81
2022/05/15 07:33:45;;;;;;;5.20;4.43;;;;;;;20.04;54.68;99513.00;5053661;28;20873;-83
2022/05/15 07:36:12;;;;;;;5.57;4.00;;;;;;;19.88;55.29;99513.66;5065244;28;20509;-82
2022/05/15 07:38:40;;;;;;;6.22;4.10;;;;;;;20.04;54.51;99504.81;5073036;28;20774;-82
2022/05/15 07:41:07;;;;;;;6.17;4.43;;;;;;;20.46;53.38;99496.91;5072902;28;20219;-83
2022/05/15 07:43:34;;;;;;;7.87;4.03;;;;;;;20.41;53.44;99502.84;5072891;28;20454;-82
2022/05/15 07:46:01;;;;;;;5.43;3.60;;;;;;;20.74;51.87;99503.19;5074979;28;20490;-83
2022/05/15 07:48:28;;;;;;;5.63;4.00;;;;;;;21.03;51.85;99492.00;5071348;28;20443;-84
2022/05/15 07:50:55;;;;;;;11.40;4.23;;;;;;;20.87;51.92;99480.94;5064785;28;20469;-81
2022/05/15 07:53:22;;;;;;;5.20;3.80;;;;;;;20.94;52.31;99479.28;5071052;28;20455;-83
2022/05/15 07:55:50;;;;;;;4.17;3.40;;;;;;;21.51;51.05;99481.56;5072317;28;20439;-81
2022/05/15 07:58:17;;;;;;;5.20;3.77;;;;;;;21.70;49.62;99480.47;5073503;28;20437;-81
2022/05/15 08:00:43;;;;;;;5.43;3.60;;;;;;;21.58;48.85;99474.41;5073430;28;20508;-83
2022/05/15 08:03:13;;;;;;;4.53;3.63;;;;;;;21.86;48.61;99476.94;5072862;28;20522;-82
2022/05/15 08:08:25;;;;;;;5.80;3.47;;;;;;;22.20;47.44;99476.88;5072185;28;20427;-82
2022/05/15 08:10:52;;;;;;;5.80;3.40;;;;;;;22.56;46.06;99479.41;5073600;28;20450;-84
2022/05/15 08:13:22;;;;;;;7.73;3.00;;;;;;;22.76;46.10;99479.09;5074160;28;20451;-82
2022/05/15 08:15:49;;;;;;;5.03;3.40;;;;;;;22.11;47.76;99472.41;5072782;28;20485;-82
2022/05/15 08:23:50;;;;;;;5.30;3.80;;;;;;;22.89;44.81;99461.06;5081521;28;20459;-82
2022/05/15 08:26:19;;;;;;;3.50;3.20;;;;;;;23.17;44.18;99465.38;5082308;28;20441;-82
2022/05/15 08:28:46;;;;;;;3.90;3.00;;;;;;;23.14;44.90;99458.34;5076267;28;20474;-83
2022/05/15 08:31:13;;;;;;;7.07;3.20;;;;;;;23.29;44.59;99462.09;5072514;28;20504;-83
2022/05/15 08:33:41;;;;;;;6.80;4.20;;;;;;;23.25;43.98;99459.88;5072348;28;20439;-83
2022/05/15 08:36:09;;;;;;;4.50;3.63;;;;;;;23.29;43.50;99463.97;5072325;28;20431;-83
2022/05/15 08:38:37;;;;;;;4.43;3.50;;;;;;;23.46;43.28;99462.91;5072548;28;20485;-82
2022/05/15 08:41:09;;;;;;;4.57;3.10;;;;;;;23.47;42.98;99472.00;5072151;28;20478;-82
2022/05/15 08:43:44;;;;;;;4.20;3.10;;;;;;;23.61;42.69;99464.97;5072317;28;20460;-82
2022/05/15 08:46:37;;;;;;;4.90;2.90;;;;;;;23.57;43.23;99471.84;5068913;28;20927;-84
2022/05/15 08:49:09;;;;;;;3.73;3.27;;;;;;;23.71;43.11;99474.69;5068361;28;20435;-83
2022/05/15 08:51:37;;;;;;;5.20;4.33;;;;;;;23.94;42.50;99469.31;5071139;28;20466;-82
2022/05/15 08:54:07;;;;;;;6.50;3.30;;;;;;;23.71;42.76;99462.84;5071392;28;20449;-82
2022/05/15 08:56:39;;;;;;;5.80;3.60;;;;;;;24.05;42.18;99472.72;5070502;28;20450;-82
2022/05/15 08:59:14;;;;;;;4.67;3.13;;;;;;;23.99;42.57;99466.00;5070936;28;20442;-82
2022/05/15 09:01:40;;;;;;;6.23;4.03;;;;;;;23.63;43.20;99461.00;5071345;28;20463;-82
2022/05/15 09:04:08;;;;;;;5.73;3.03;;;;;;;23.87;43.16;99461.94;5072491;28;20446;-82
2022/05/15 09:06:43;;;;;;;6.17;3.47;;;;;;;24.06;42.62;99467.03;5070083;28;20438;-81
2022/05/15 09:09:19;;;;;;;4.37;2.90;;;;;;;24.14;42.17;99458.72;5071386;28;20429;-81
2022/05/15 09:11:55;;;;;;;4.87;3.57;;;;;;;24.21;42.67;99463.50;5071028;28;20430;-83
2022/05/15 09:14:36;;;;;;;7.87;3.20;;;;;;;24.22;42.13;99451.47;5071384;28;20990;-83
2022/05/15 09:17:15;;;;;;;5.97;3.30;;;;;;;24.19;42.34;99449.06;5070546;28;20477;-83
2022/05/15 09:19:42;;;;;;;4.37;3.03;;;;;;;23.91;43.24;99452.31;5071065;28;20438;-85
2022/05/15 09:22:12;;;;;;;3.40;3.10;;;;;;;24.03;43.05;99455.53;5072297;28;20478;-86
2022/05/15 09:24:43;;;;;;;3.60;2.80;;;;;;;24.15;43.17;99454.09;5072191;28;20511;-85
2022/05/15 09:27:17;;;;;;;4.90;3.60;;;;;;;24.30;43.28;99445.91;5069896;28;20487;-84
2022/05/15 09:29:52;;;;;;;3.70;3.03;;;;;;;24.52;42.32;99449.75;5066603;28;20965;-84
2022/05/15 09:32:44;;;;;;;3.80;3.47;;;;;;;24.82;41.86;99439.72;5071766;28;20441;-83
2022/05/15 09:35:31;;;;;;;5.10;3.17;;;;;;;24.78;41.73;99438.38;5056846;28;20454;-82
2022/05/15 09:43:35;;;;;;;4.17;3.20;;;;;;;25.11;41.01;99422.41;5071593;28;20450;-83
2022/05/15 09:46:13;;;;;;;5.37;3.20;;;;;;;24.85;42.13;99424.72;5072721;28;20542;-84
2022/05/15 09:48:49;;;;;;;5.40;3.27;;;;;;;24.58;42.91;99427.03;5072396;28;20802;-84
2022/05/15 09:51:27;;;;;;;5.23;3.37;;;;;;;24.85;42.73;99424.72;5070972;28;20474;-85
2022/05/15 09:53:56;;;;;;;4.50;3.73;;;;;;;25.07;40.67;99422.97;5067624;28;20491;-84
2022/05/15 09:56:30;;;;;;;7.90;4.20;;;;;;;25.31;41.62;99419.16;5054656;28;20451;-82
2022/05/15 09:59:01;;;;;;;6.03;3.17;;;;;;;25.44;41.49;99411.09;5070578;28;20446;-85
2022/05/15 10:01:35;;;;;;;3.50;2.50;;;;;;;25.44;39.73;99407.44;5071580;28;20536;-84
2022/05/15 10:04:21;;;;;;;6.67;3.20;;;;;;;25.44;39.37;99411.09;5063492;28;20825;-85
2022/05/15 10:06:53;;;;;;;4.07;2.63;;;;;;;25.59;38.88;99409.16;5071723;28;20427;-85
2022/05/15 10:09:26;;;;;;;6.70;3.73;;;;;;;25.72;38.85;99397.47;5072060;28;20431;-84
2022/05/15 10:12:00;;;;;;;3.63;2.60;;;;;;;25.88;37.59;99407.44;5072067;28;20419;-85
2022/05/15 10:14:33;;;;;;;4.13;2.63;;;;;;;25.73;37.54;99401.94;5072224;28;20430;-86
2022/05/15 10:17:02;;;;;;;2.73;2.30;;;;;;;25.87;37.09;99397.47;5071947;28;20490;-84
2022/05/15 10:19:39;;;;;;;6.07;2.60;;;;;;;25.85;36.64;99394.03;5064196;28;20431;-84
2022/05/15 10:22:17;;;;;;;5.53;2.97;;;;;;;25.93;36.64;99387.56;5062929;28;20463;-83
2022/05/15 10:24:46;;;;;;;3.77;2.43;;;;;;;25.84;36.50;99383.19;5062996;28;20423;-83
2022/05/15 10:27:22;;;;;;;3.70;2.47;;;;;;;25.86;35.78;99386.59;5063532;28;20431;-83
2022/05/15 10:29:54;;;;;;;3.40;2.60;;;;;;;26.13;35.01;99383.13;5066186;28;20423;-84
2022/05/15 10:32:28;;;;;;;6.83;3.10;;;;;;;26.31;34.93;99376.31;5085188;28;20478;-83
2022/05/15 10:34:56;;;;;;;4.50;3.00;;;;;;;26.44;34.89;99370.94;5086182;28;20442;-83
2022/05/15 10:37:43;;;;;;;2.63;2.30;;;;;;;26.32;34.40;99378.91;5087181;28;20922;-84
2022/05/15 10:40:25;;;;;;;3.50;2.37;;;;;;;26.20;34.73;99372.16;5084626;28;20917;-83
2022/05/15 10:43:02;;;;;;;5.27;2.10;;;;;;;26.47;34.47;99362.25;5081492;28;20469;-83
2022/05/15 10:45:35;;;;;;;5.17;2.37;;;;;;;26.29;34.84;99365.47;5081201;28;20442;-85
2022/05/15 10:48:14;;;;;;;2.77;2.53;;;;;;;26.26;34.94;99360.34;5064777;28;20458;-84
2022/05/15 10:50:52;;;;;;;3.80;2.77;;;;;;;25.97;35.22;99367.69;5062028;28;20544;-85
2022/05/15 10:59:31;;;;;;;6.57;2.80;;;;;;;26.54;34.72;99360.41;5065189;28;20403;-85
2022/05/15 11:02:10;;;;;;;3.67;2.70;;;;;;;26.67;34.58;99362.47;5065627;28;20470;-84
2022/05/15 11:04:46;;;;;;;4.27;2.37;;;;;;;26.60;34.76;99359.66;5075783;28;20942;-84
2022/05/15 11:07:22;;;;;;;2.63;2.07;;;;;;;26.35;34.69;99359.16;5077606;28;20438;-84
2022/05/15 11:10:03;;;;;;;6.00;2.47;;;;;;;26.04;35.41;99355.88;5077721;28;20437;-85
2022/05/15 11:12:39;;;;;;;3.60;2.20;;;;;;;26.24;35.33;99337.63;5078032;28;20419;-84
2022/05/15 11:15:29;;;;;;;5.83;3.23;;;;;;;26.50;35.44;99341.69;5077552;28;20528;-83
2022/05/15 11:18:03;;;;;;;7.67;3.60;;;;;;;26.57;35.14;99340.72;5072795;28;20916;-85
2022/05/15 11:20:37;;;;;;;3.17;2.87;;;;;;;26.40;34.96;99340.09;5073762;28;20425;-84
2022/05/15 11:23:11;;;;;;;3.97;2.60;;;;;;;26.48;34.59;99343.78;5074007;28;20469;-83
2022/05/15 11:25:44;;;;;;;4.77;2.77;;;;;;;26.61;34.49;99341.16;5073125;28;20439;-84
2022/05/15 11:28:13;;;;;;;4.40;2.60;;;;;;;26.56;34.93;99333.47;5074020;28;20431;-85
2022/05/15 11:30:43;;;;;;;3.80;2.77;;;;;;;26.72;34.75;99335.09;5073768;28;20451;-84
2022/05/15 11:33:11;;;;;;;3.20;2.83;;;;;;;26.76;34.65;99328.13;5073417;28;20450;-85
2022/05/15 11:35:41;;;;;;;5.03;2.60;;;;;;;26.72;34.79;99332.34;5073989;28;20768;-83
2022/05/15 11:38:27;;;;;;;4.97;2.23;;;;;;;26.69;34.61;99324.47;5076378;28;20459;-83
2022/05/15 11:40:54;;;;;;;6.70;2.83;;;;;;;26.60;34.68;99321.00;5073571;28;20427;-85
2022/05/15 11:43:52;;;;;;;3.73;2.80;;;;;;;26.88;34.34;99322.06;5084683;28;20561;-83
2022/05/15 11:46:19;;;;;;;4.97;2.90;;;;;;;26.97;34.22;99316.16;5073760;28;20469;-83
2022/05/15 11:48:58;;;;;;;4.10;2.87;;;;;;;26.99;34.01;99319.56;5074187;28;20415;-85
2022/05/15 11:51:32;;;;;;;4.03;2.47;;;;;;;27.07;33.92;99318.59;5073727;28;20506;-85
2022/05/15 11:54:03;;;;;;;3.13;2.37;;;;;;;26.94;34.24;99316.56;5072862;28;20471;-84
2022/05/15 11:56:39;;;;;;;4.40;2.43;;;;;;;26.80;34.58;99306.50;5074049;28;20427;-84
2022/05/15 11:59:24;;;;;;;3.80;2.97;;;;;;;26.78;34.92;99303.94;5073644;28;20441;-83
2022/05/15 12:01:52;;;;;;;4.13;2.60;;;;;;;26.83;34.81;99295.88;5073844;28;20807;-84
2022/05/15 12:04:54;;;;;;;7.00;2.57;;;;;;;26.56;34.39;99299.50;5073568;28;20435;-84